Time;durP1;ratioP1;P1;durP2;ratioP2;P2;SDS_P1;SDS_P2;PMS_P1;PMS_P2;Temp;Humidity;BMP_temperature;BMP_pressure;BME280_temperature;BME280_humidity;BME280_pressure;Samples;Min_cycle;Max_cycle;Signal;HPM_P1;HPM_P2
2022/11/12 00:01:29;;;;;;;25.13;18.47;;;;;;;;;;4979484;28;20187;-81
2022/11/12 00:03:56;;;;;;;24.93;18.47;;;;;;;;;;4992718;28;20180;-81
2022/11/12 00:06:22;;;;;;;21.90;16.87;;;;;;;;;;4992287;28;20191;-83
2022/11/12 00:08:48;;;;;;;27.30;17.90;;;;;;;;;;4982262;28;20716;-83
2022/11/12 00:11:14;;;;;;;25.93;18.57;;;;;;;;;;4979372;28;20189;-83
2022/11/12 00:13:40;;;;;;;26.47;18.57;;;;;;;;;;4990297;28;20198;-83
2022/11/12 00:16:06;;;;;;;23.27;17.53;;;;;;;;;;4993406;28;20179;-82
2022/11/12 00:18:32;;;;;;;27.33;17.77;;;;;;;;;;4993966;28;20259;-82
2022/11/12 00:20:58;;;;;;;24.43;17.63;;;;;;;;;;4990354;28;20315;-81
2022/11/12 00:23:24;;;;;;;24.13;18.13;;;;;;;;;;4992360;28;20613;-82
2022/11/12 00:25:57;;;;;;;20.33;16.53;;;;;;;;;;4993730;28;20275;-82
2022/11/12 00:28:23;;;;;;;25.03;17.20;;;;;;;;;;4979547;28;20183;-82
2022/11/12 00:30:49;;;;;;;25.10;17.53;;;;;;;;;;4992864;28;20237;-80
2022/11/12 00:33:15;;;;;;;24.40;17.73;;;;;;;;;;5008132;28;20246;-81
2022/11/12 00:35:41;;;;;;;25.47;18.37;;;;;;;;;;4984361;28;20187;-83
2022/11/12 00:38:07;;;;;;;22.77;18.20;;;;;;;;;;5008115;28;20669;-83
2022/11/12 00:40:33;;;;;;;26.30;17.20;;;;;;;;;;5006425;28;20180;-81
2022/11/12 00:42:59;;;;;;;24.07;18.07;;;;;;;;;;5008959;28;20334;-81
2022/11/12 00:45:25;;;;;;;24.40;17.33;;;;;;;;;;4996175;28;20179;-83
2022/11/12 00:47:55;;;;;;;26.33;18.50;;;;;;;;;;4995835;28;20552;-82
2022/11/12 00:50:21;;;;;;;24.30;17.60;;;;;;;;;;4991484;28;20238;-82
2022/11/12 00:52:47;;;;;;;23.97;16.20;;;;;;;;;;5008505;28;20250;-82
2022/11/12 00:55:13;;;;;;;22.80;17.57;;;;;;;;;;5008698;28;20200;-83
2022/11/12 00:57:39;;;;;;;23.93;17.67;;;;;;;;;;4991920;28;20175;-80
2022/11/12 01:00:06;;;;;;;29.73;18.83;;;;;;;;;;4988298;28;20546;-80
2022/11/12 01:02:32;;;;;;;22.97;17.33;;;;;;;;;;4992001;28;20180;-83
2022/11/12 01:04:58;;;;;;;29.80;19.20;;;;;;;;;;5003355;28;20266;-81
2022/11/12 01:07:24;;;;;;;25.37;18.03;;;;;;;;;;4973190;28;20263;-83
2022/11/12 01:09:50;;;;;;;24.80;18.67;;;;;;;;;;4988505;28;20639;-81
2022/11/12 01:12:16;;;;;;;21.07;17.70;;;;;;;;;;4976193;28;20220;-81
2022/11/12 01:14:42;;;;;;;23.70;18.23;;;;;;;;;;4983704;28;20196;-80
2022/11/12 01:17:08;;;;;;;24.90;18.73;;;;;;;;;;4980982;28;20183;-83
2022/11/12 01:19:34;;;;;;;30.23;18.80;;;;;;;;;;5007786;28;20187;-83
2022/11/12 01:22:00;;;;;;;26.50;18.57;;;;;;;;;;4991064;28;20246;-81
2022/11/12 01:24:26;;;;;;;21.37;17.17;;;;;;;;;;4993156;28;20195;-80
2022/11/12 01:26:52;;;;;;;24.93;16.97;;;;;;;;;;4988254;28;20188;-83
2022/11/12 01:29:18;;;;;;;23.53;18.57;;;;;;;;;;4991731;28;20249;-82
2022/11/12 01:31:44;;;;;;;24.33;17.37;;;;;;;;;;4987230;28;20236;-82
2022/11/12 01:34:10;;;;;;;25.33;17.67;;;;;;;;;;4992848;28;20180;-83
2022/11/12 01:36:37;;;;;;;22.33;17.53;;;;;;;;;;4992151;28;20234;-81
2022/11/12 01:39:04;;;;;;;22.63;17.77;;;;;;;;;;4983879;28;20184;-81
2022/11/12 01:41:31;;;;;;;24.00;17.80;;;;;;;;;;4989766;28;20238;-81
2022/11/12 01:44:16;;;;;;;26.13;17.53;;;;;;;;;;4992458;28;20190;-81
2022/11/12 01:47:04;;;;;;;21.50;16.43;;;;;;;;;;4984783;28;20663;-82
2022/11/12 01:49:41;;;;;;;21.17;16.57;;;;;;;;;;5005142;28;20275;-82
2022/11/12 01:52:20;;;;;;;22.07;16.43;;;;;;;;;;4981567;28;20199;-83
2022/11/12 01:54:48;;;;;;;22.27;17.60;;;;;;;;;;4990679;28;20210;-82
2022/11/12 01:57:17;;;;;;;21.70;16.87;;;;;;;;;;4989367;28;20198;-81
2022/11/12 01:59:45;;;;;;;24.53;17.17;;;;;;;;;;4982360;28;20192;-81
2022/11/12 02:02:11;;;;;;;25.90;17.70;;;;;;;;;;4992415;28;20554;-82
2022/11/12 02:04:39;;;;;;;22.37;17.53;;;;;;;;;;5004418;28;20243;-82
2022/11/12 02:07:06;;;;;;;22.40;16.93;;;;;;;;;;4973149;28;20180;-82
2022/11/12 02:09:32;;;;;;;23.67;17.87;;;;;;;;;;4987334;28;20241;-82
2022/11/12 02:11:59;;;;;;;22.07;17.47;;;;;;;;;;4987245;28;20677;-81
2022/11/12 02:14:25;;;;;;;23.57;17.47;;;;;;;;;;4991350;28;20191;-82
2022/11/12 02:16:51;;;;;;;19.67;16.13;;;;;;;;;;5004295;28;20180;-83
2022/11/12 02:19:17;;;;;;;23.93;16.57;;;;;;;;;;4988582;28;20188;-81
2022/11/12 02:21:44;;;;;;;24.90;17.73;;;;;;;;;;4991502;28;20220;-82
2022/11/12 02:24:13;;;;;;;23.13;17.23;;;;;;;;;;5006551;28;20192;-81
2022/11/12 02:26:42;;;;;;;26.27;16.77;;;;;;;;;;4984333;28;20199;-81
2022/11/12 02:29:08;;;;;;;24.67;17.87;;;;;;;;;;4999915;28;20183;-83
2022/11/12 02:31:34;;;;;;;25.27;17.00;;;;;;;;;;5013135;28;20210;-84
2022/11/12 02:34:00;;;;;;;21.53;16.70;;;;;;;;;;4995290;28;20180;-81
2022/11/12 02:36:26;;;;;;;23.83;17.37;;;;;;;;;;4977342;28;20180;-83
2022/11/12 02:38:53;;;;;;;25.40;17.07;;;;;;;;;;4986533;28;20535;-80
2022/11/12 02:41:19;;;;;;;25.23;17.63;;;;;;;;;;4991256;28;20179;-82
2022/11/12 02:43:45;;;;;;;24.10;17.03;;;;;;;;;;4994973;28;20187;-84
2022/11/12 02:46:11;;;;;;;22.97;16.77;;;;;;;;;;4994227;28;20263;-81
2022/11/12 02:48:37;;;;;;;24.40;16.83;;;;;;;;;;4994239;28;20180;-83
2022/11/12 02:51:04;;;;;;;24.80;17.80;;;;;;;;;;4994574;28;20270;-81
2022/11/12 02:53:31;;;;;;;26.13;18.33;;;;;;;;;;4994407;28;20275;-83
2022/11/12 02:59:00;;;;;;;22.57;17.07;;;;;;;;;;4982518;28;20275;-83
2022/11/12 03:01:26;;;;;;;24.03;17.60;;;;;;;;;;4994318;28;20199;-82
2022/11/12 03:03:52;;;;;;;22.70;17.03;;;;;;;;;;4994764;28;20631;-82
2022/11/12 03:06:18;;;;;;;26.77;18.20;;;;;;;;;;4994239;28;20180;-83
2022/11/12 03:08:44;;;;;;;22.13;16.43;;;;;;;;;;4994309;28;20179;-81
2022/11/12 03:11:11;;;;;;;22.93;16.67;;;;;;;;;;5009274;28;20191;-83
2022/11/12 03:13:38;;;;;;;24.53;17.53;;;;;;;;;;4979371;28;20671;-82
2022/11/12 03:16:04;;;;;;;21.73;17.47;;;;;;;;;;4995775;28;20183;-83
2022/11/12 03:18:30;;;;;;;23.87;17.67;;;;;;;;;;5009785;28;20206;-84
2022/11/12 03:20:56;;;;;;;19.23;15.00;;;;;;;;;;5010246;28;20232;-82
2022/11/12 03:23:22;;;;;;;24.77;16.83;;;;;;;;;;5007865;28;20224;-82
2022/11/12 03:25:48;;;;;;;24.20;17.47;;;;;;;;;;5008686;28;20183;-81
2022/11/12 03:28:15;;;;;;;21.53;16.30;;;;;;;;;;4994224;28;20172;-83
2022/11/12 03:30:42;;;;;;;19.90;16.07;;;;;;;;;;4994692;28;20222;-82
2022/11/12 03:33:09;;;;;;;21.40;16.67;;;;;;;;;;4985591;28;20223;-82
2022/11/12 03:35:35;;;;;;;23.20;16.00;;;;;;;;;;4982827;28;20196;-82
2022/11/12 03:38:02;;;;;;;19.47;15.87;;;;;;;;;;4981638;28;20295;-83
2022/11/12 03:40:28;;;;;;;21.13;16.63;;;;;;;;;;4993989;28;20220;-83
2022/11/12 03:42:54;;;;;;;23.63;17.13;;;;;;;;;;4993854;28;20617;-84
2022/11/12 03:45:22;;;;;;;24.20;17.27;;;;;;;;;;4992777;28;20238;-83
2022/11/12 03:47:49;;;;;;;18.43;15.70;;;;;;;;;;4989589;28;20187;-82
2022/11/12 03:50:16;;;;;;;22.97;16.90;;;;;;;;;;5006823;28;20185;-82
2022/11/12 03:52:49;;;;;;;21.07;16.43;;;;;;;;;;5008822;28;20204;-84
2022/11/12 03:55:16;;;;;;;21.97;16.43;;;;;;;;;;4993089;28;20246;-82
2022/11/12 03:57:42;;;;;;;22.17;16.30;;;;;;;;;;4992969;28;20176;-83
2022/11/12 04:00:09;;;;;;;19.77;16.27;;;;;;;;;;4986467;28;20189;-83
2022/11/12 04:02:35;;;;;;;25.23;16.87;;;;;;;;;;4985100;28;20498;-84
2022/11/12 04:10:33;;;;;;;32.77;17.77;;;;;;;;;;5002075;28;20549;-82
2022/11/12 04:15:44;;;;;;;23.50;16.90;;;;;;;;;;4993452;28;20207;-81
2022/11/12 04:23:39;;;;;;;32.57;17.90;;;;;;;;;;4990412;28;20641;-82
2022/11/12 04:26:22;;;;;;;30.23;17.60;;;;;;;;;;4984519;28;20196;-81
2022/11/12 04:31:32;;;;;;;35.67;20.03;;;;;;;;;;4993097;28;20668;-82
2022/11/12 04:34:27;;;;;;;32.87;21.17;;;;;;;;;;4993112;28;20176;-81
2022/11/12 04:36:44;;;;;;;28.30;19.73;;;;;;;;;;4993332;28;20240;-83
2022/11/12 04:39:11;;;;;;;30.93;20.30;;;;;;;;;;4992037;28;20194;-82
2022/11/12 04:47:06;;;;;;;33.17;21.00;;;;;;;;;;4991386;28;20199;-84
2022/11/12 04:49:32;;;;;;;31.17;21.80;;;;;;;;;;4992530;28;20222;-82
2022/11/12 04:52:04;;;;;;;31.10;21.73;;;;;;;;;;4988351;28;20200;-81
2022/11/12 04:54:30;;;;;;;38.07;22.43;;;;;;;;;;5004845;28;20188;-84
2022/11/12 04:56:56;;;;;;;28.20;21.77;;;;;;;;;;4986551;28;20180;-83
2022/11/12 04:59:22;;;;;;;30.40;22.43;;;;;;;;;;5007513;28;20191;-81
2022/11/12 05:01:48;;;;;;;34.53;23.30;;;;;;;;;;4976696;28;20196;-82
2022/11/12 05:04:14;;;;;;;29.40;21.50;;;;;;;;;;4992336;28;20168;-82
2022/11/12 05:06:52;;;;;;;31.77;22.50;;;;;;;;;;4991907;28;20184;-81
2022/11/12 05:09:21;;;;;;;32.97;22.13;;;;;;;;;;4992471;28;20211;-83
2022/11/12 05:11:47;;;;;;;26.77;20.80;;;;;;;;;;4981481;28;20227;-82
2022/11/12 05:14:13;;;;;;;34.70;21.83;;;;;;;;;;4980983;28;20195;-82
2022/11/12 05:16:39;;;;;;;30.20;21.90;;;;;;;;;;4991441;28;20202;-83
2022/11/12 05:19:05;;;;;;;30.37;21.53;;;;;;;;;;4991654;28;20651;-82
2022/11/12 05:24:16;;;;;;;30.47;21.93;;;;;;;;;;4993029;28;20237;-83
2022/11/12 05:26:42;;;;;;;31.20;21.97;;;;;;;;;;5007937;28;20184;-84
2022/11/12 05:29:08;;;;;;;31.70;22.57;;;;;;;;;;4991501;28;20215;-82
2022/11/12 05:31:34;;;;;;;29.83;21.97;;;;;;;;;;4993131;28;20256;-80
2022/11/12 05:34:00;;;;;;;30.60;23.23;;;;;;;;;;4992166;28;20607;-82
2022/11/12 05:36:26;;;;;;;29.43;22.60;;;;;;;;;;5007509;28;20211;-82
2022/11/12 05:38:52;;;;;;;31.57;23.87;;;;;;;;;;4990305;28;20188;-82
2022/11/12 05:41:18;;;;;;;27.67;23.00;;;;;;;;;;5007983;28;20176;-83
2022/11/12 05:43:44;;;;;;;32.87;24.10;;;;;;;;;;4978365;28;20187;-83
2022/11/12 05:46:10;;;;;;;32.50;23.03;;;;;;;;;;4988321;28;20187;-81
2022/11/12 05:48:36;;;;;;;30.47;24.20;;;;;;;;;;4980012;28;20185;-82
2022/11/12 05:51:03;;;;;;;32.63;24.40;;;;;;;;;;4985772;28;20191;-81
2022/11/12 05:53:29;;;;;;;28.17;22.90;;;;;;;;;;4987654;28;20672;-82
2022/11/12 05:56:00;;;;;;;34.50;25.10;;;;;;;;;;5007931;28;20215;-83
2022/11/12 05:58:26;;;;;;;31.20;24.60;;;;;;;;;;4995396;28;20168;-82
2022/11/12 06:00:52;;;;;;;35.80;25.47;;;;;;;;;;4995585;28;20245;-82
2022/11/12 06:03:18;;;;;;;29.30;26.03;;;;;;;;;;5011157;28;20187;-81
2022/11/12 06:05:44;;;;;;;36.67;25.90;;;;;;;;;;4995392;28;20201;-83
2022/11/12 06:08:10;;;;;;;32.33;25.83;;;;;;;;;;5008323;28;20180;-82
2022/11/12 06:10:36;;;;;;;28.77;23.30;;;;;;;;;;4978281;28;20287;-84
2022/11/12 06:13:02;;;;;;;31.93;24.03;;;;;;;;;;4996116;28;20210;-83
2022/11/12 06:15:28;;;;;;;35.30;26.97;;;;;;;;;;4996237;28;20188;-83
2022/11/12 06:17:54;;;;;;;30.50;24.33;;;;;;;;;;4992640;28;20188;-81
2022/11/12 06:20:21;;;;;;;32.07;26.20;;;;;;;;;;5011847;28;20179;-82
2022/11/12 06:22:47;;;;;;;38.17;28.37;;;;;;;;;;4996425;28;20203;-82
2022/11/12 06:25:13;;;;;;;31.83;26.67;;;;;;;;;;4998289;28;20191;-81
2022/11/12 06:27:40;;;;;;;36.20;27.73;;;;;;;;;;4997770;28;20685;-82
2022/11/12 06:30:06;;;;;;;32.10;26.17;;;;;;;;;;5013141;28;20219;-81
2022/11/12 06:32:33;;;;;;;39.90;30.63;;;;;;;;;;4994456;28;20672;-82
2022/11/12 06:34:59;;;;;;;40.47;30.07;;;;;;;;;;4995837;28;20298;-84
2022/11/12 06:37:25;;;;;;;35.60;30.20;;;;;;;;;;4997211;28;20285;-81
2022/11/12 06:39:51;;;;;;;38.37;32.20;;;;;;;;;;4993692;28;20237;-83
2022/11/12 06:42:17;;;;;;;40.50;31.77;;;;;;;;;;4995316;28;20234;-83
2022/11/12 06:44:43;;;;;;;40.43;31.47;;;;;;;;;;4987077;28;20192;-82
2022/11/12 06:47:10;;;;;;;46.93;32.93;;;;;;;;;;5003434;28;20267;-80
2022/11/12 06:49:36;;;;;;;42.50;32.07;;;;;;;;;;5017629;28;20188;-80
2022/11/12 06:52:02;;;;;;;45.83;33.30;;;;;;;;;;5019068;28;20203;-81
2022/11/12 06:54:28;;;;;;;47.00;35.40;;;;;;;;;;5018422;28;20183;-80
2022/11/12 06:56:54;;;;;;;48.13;35.33;;;;;;;;;;5016856;28;20219;-80
2022/11/12 06:59:20;;;;;;;45.77;34.67;;;;;;;;;;5010731;28;20183;-83
2022/11/12 07:01:46;;;;;;;50.57;37.50;;;;;;;;;;5015567;28;20202;-81
2022/11/12 07:04:12;;;;;;;48.00;35.40;;;;;;;;;;5018880;28;20208;-82
2022/11/12 07:06:38;;;;;;;49.53;37.07;;;;;;;;;;5033662;28;20188;-79
2022/11/12 07:09:04;;;;;;;48.93;36.33;;;;;;;;;;5028823;28;20173;-82
2022/11/12 07:11:31;;;;;;;50.23;37.80;;;;;;;;;;4998717;28;20252;-83
2022/11/12 07:13:57;;;;;;;52.40;38.23;;;;;;;;;;5032625;28;20211;-80
2022/11/12 07:16:23;;;;;;;54.80;37.60;;;;;;;;;;5017349;28;20344;-81
2022/11/12 07:18:49;;;;;;;48.90;36.73;;;;;;;;;;5012901;28;20217;-81
2022/11/12 07:21:17;;;;;;;50.17;37.53;;;;;;;;;;5013834;28;20679;-81
2022/11/12 07:23:43;;;;;;;50.57;36.23;;;;;;;;;;5006684;28;20695;-83
2022/11/12 07:26:20;;;;;;;47.70;36.23;;;;;;;;;;4980155;28;20176;-82
2022/11/12 07:28:47;;;;;;;46.90;34.53;;;;;;;;;;4997320;28;20267;-82
2022/11/12 07:31:14;;;;;;;50.17;34.67;;;;;;;;;;4997916;28;20555;-82
2022/11/12 07:33:41;;;;;;;43.13;32.90;;;;;;;;;;4988034;28;20196;-81
2022/11/12 07:36:08;;;;;;;47.73;34.27;;;;;;;;;;4991607;28;20191;-82
2022/11/12 07:38:36;;;;;;;44.37;34.33;;;;;;;;;;5014105;28;20179;-80
2022/11/12 07:41:10;;;;;;;44.47;34.80;;;;;;;;;;4989247;28;20196;-81
2022/11/12 07:43:36;;;;;;;46.20;34.47;;;;;;;;;;4990079;28;20265;-82
2022/11/12 07:46:07;;;;;;;44.50;32.57;;;;;;;;;;4994366;28;20691;-83
2022/11/12 07:48:33;;;;;;;44.70;33.13;;;;;;;;;;4985611;28;20246;-83
2022/11/12 07:51:06;;;;;;;41.30;31.10;;;;;;;;;;4982335;28;20180;-82
2022/11/12 07:53:33;;;;;;;44.73;31.30;;;;;;;;;;5010413;28;20208;-80
2022/11/12 07:56:00;;;;;;;46.53;33.53;;;;;;;;;;4979449;28;20184;-81
2022/11/12 07:58:27;;;;;;;45.90;33.20;;;;;;;;;;4994434;28;20200;-81
2022/11/12 08:00:53;;;;;;;43.07;33.77;;;;;;;;;;5007752;28;20235;-82
2022/11/12 08:03:19;;;;;;;45.47;33.30;;;;;;;;;;4983600;28;20184;-83
2022/11/12 08:05:45;;;;;;;41.87;33.77;;;;;;;;;;4999460;28;20207;-81
2022/11/12 08:08:11;;;;;;;49.00;35.70;;;;;;;;;;5008388;28;20198;-82
2022/11/12 08:10:38;;;;;;;44.20;33.73;;;;;;;;;;4994724;28;20172;-83
2022/11/12 08:13:04;;;;;;;47.63;36.40;;;;;;;;;;4994292;28;20335;-83
2022/11/12 08:15:30;;;;;;;42.87;33.83;;;;;;;;;;4999803;28;20189;-84
2022/11/12 08:17:56;;;;;;;41.77;33.07;;;;;;;;;;4977425;28;20185;-83
2022/11/12 08:20:22;;;;;;;47.47;35.03;;;;;;;;;;4980405;28;20180;-82
2022/11/12 08:22:48;;;;;;;42.30;33.97;;;;;;;;;;4992917;28;20629;-83
2022/11/12 08:25:14;;;;;;;42.87;32.63;;;;;;;;;;4990455;28;20233;-82
2022/11/12 08:27:40;;;;;;;40.33;32.60;;;;;;;;;;4992943;28;20195;-81
2022/11/12 08:30:07;;;;;;;46.30;35.27;;;;;;;;;;5009887;28;20180;-82
2022/11/12 08:32:33;;;;;;;44.50;34.60;;;;;;;;;;4994046;28;20786;-82
2022/11/12 08:34:59;;;;;;;45.50;36.00;;;;;;;;;;5010266;28;20211;-81
2022/11/12 08:37:25;;;;;;;45.60;34.30;;;;;;;;;;4993811;28;20194;-82
2022/11/12 08:39:51;;;;;;;41.90;34.77;;;;;;;;;;4992540;28;20200;-83
2022/11/12 08:42:17;;;;;;;39.50;33.50;;;;;;;;;;4985863;28;20183;-82
2022/11/12 08:44:43;;;;;;;45.00;35.67;;;;;;;;;;5009250;28;20196;-82
2022/11/12 08:47:10;;;;;;;46.53;35.23;;;;;;;;;;4986185;28;20606;-83
2022/11/12 08:49:36;;;;;;;44.40;34.93;;;;;;;;;;4986577;28;20672;-83
2022/11/12 08:52:02;;;;;;;45.10;35.93;;;;;;;;;;4992272;28;20212;-82
2022/11/12 08:54:29;;;;;;;43.80;34.27;;;;;;;;;;4988126;28;20251;-83
2022/11/12 08:56:55;;;;;;;46.17;36.23;;;;;;;;;;4991288;28;20195;-82
2022/11/12 08:59:21;;;;;;;57.67;39.40;;;;;;;;;;4989955;28;20577;-81
2022/11/12 09:01:47;;;;;;;77.37;52.73;;;;;;;;;;4976371;28;20184;-82
2022/11/12 09:04:13;;;;;;;72.37;48.93;;;;;;;;;;4993029;28;20187;-82
2022/11/12 09:06:39;;;;;;;66.20;50.47;;;;;;;;;;5006924;28;20705;-82
2022/11/12 09:09:05;;;;;;;54.97;40.60;;;;;;;;;;4989687;28;20706;-81
2022/11/12 09:11:31;;;;;;;48.13;39.03;;;;;;;;;;4994001;28;20184;-81
2022/11/12 09:13:57;;;;;;;50.27;40.47;;;;;;;;;;4989970;28;20175;-85
2022/11/12 09:16:23;;;;;;;51.50;38.23;;;;;;;;;;4991974;28;20711;-83
2022/11/12 09:18:49;;;;;;;50.07;39.60;;;;;;;;;;4988791;28;20676;-83
2022/11/12 09:21:16;;;;;;;50.40;39.23;;;;;;;;;;4989490;28;20228;-82
2022/11/12 09:23:42;;;;;;;50.47;40.07;;;;;;;;;;4978186;28;20184;-81
2022/11/12 09:26:08;;;;;;;49.90;38.20;;;;;;;;;;4985308;28;20275;-83
2022/11/12 09:28:34;;;;;;;54.10;39.70;;;;;;;;;;4991961;28;20290;-83
2022/11/12 09:31:01;;;;;;;51.10;38.77;;;;;;;;;;4991356;28;20195;-84
2022/11/12 09:33:30;;;;;;;51.03;37.17;;;;;;;;;;4992658;28;20199;-84
2022/11/12 09:35:59;;;;;;;48.50;36.40;;;;;;;;;;4988870;28;20187;-82
2022/11/12 09:38:25;;;;;;;49.43;37.37;;;;;;;;;;5004615;28;20247;-84
2022/11/12 09:40:51;;;;;;;52.17;38.53;;;;;;;;;;4984069;28;20171;-82
2022/11/12 09:43:25;;;;;;;47.53;36.67;;;;;;;;;;4985895;28;20274;-85
2022/11/12 09:45:51;;;;;;;48.40;37.37;;;;;;;;;;4980419;28;20192;-80
2022/11/12 09:48:26;;;;;;;51.67;38.03;;;;;;;;;;4981151;28;20266;-84
2022/11/12 09:51:00;;;;;;;49.70;37.47;;;;;;;;;;4991829;28;20182;-81
2022/11/12 09:53:29;;;;;;;49.83;37.80;;;;;;;;;;4987179;28;20224;-81
2022/11/12 09:55:55;;;;;;;49.00;36.40;;;;;;;;;;4985433;28;20185;-84
2022/11/12 09:58:21;;;;;;;48.37;37.17;;;;;;;;;;4984779;28;20543;-82
2022/11/12 10:00:56;;;;;;;49.50;37.57;;;;;;;;;;5003684;28;20188;-82
2022/11/12 10:03:28;;;;;;;50.80;37.30;;;;;;;;;;4991784;28;20195;-81
2022/11/12 10:05:54;;;;;;;49.17;37.27;;;;;;;;;;4984108;28;20553;-85
2022/11/12 10:08:26;;;;;;;48.77;35.70;;;;;;;;;;5007223;28;20180;-84
2022/11/12 10:10:52;;;;;;;46.47;37.67;;;;;;;;;;4983314;28;20176;-84
2022/11/12 10:13:53;;;;;;;46.03;36.27;;;;;;;;;;4992833;28;20207;-83
2022/11/12 10:19:22;;;;;;;49.97;37.63;;;;;;;;;;4930105;29;20209;-82
2022/11/12 10:21:51;;;;;;;46.77;37.70;;;;;;;;;;4915010;29;20260;-86
2022/11/12 10:24:20;;;;;;;50.27;38.37;;;;;;;;;;4930017;29;20669;-83
2022/11/12 10:26:47;;;;;;;49.33;37.53;;;;;;;;;;4930460;29;20178;-85
2022/11/12 10:29:32;;;;;;;50.47;36.27;;;;;;;;;;4930707;29;20316;-82
2022/11/12 10:32:01;;;;;;;45.13;35.50;;;;;;;;;;4932394;29;20213;-83
2022/11/12 10:34:27;;;;;;;54.57;41.67;;;;;;;;;;4926669;29;20269;-85
2022/11/12 10:37:04;;;;;;;46.30;37.43;;;;;;;;;;4912835;29;20391;-83
2022/11/12 10:39:33;;;;;;;50.37;35.60;;;;;;;;;;4930802;29;20205;-82
2022/11/12 10:42:03;;;;;;;43.30;35.07;;;;;;;;;;4924857;29;20226;-85
2022/11/12 10:44:29;;;;;;;42.00;33.07;;;;;;;;;;4919578;29;20236;-84
2022/11/12 10:47:15;;;;;;;46.23;34.90;;;;;;;;;;4935587;29;20210;-83
2022/11/12 10:49:41;;;;;;;49.00;35.50;;;;;;;;;;4934694;28;20192;-83
2022/11/12 10:52:19;;;;;;;46.67;36.43;;;;;;;;;;4994654;28;20578;-84
2022/11/12 10:54:45;;;;;;;40.90;34.70;;;;;;;;;;4998283;28;20649;-83
2022/11/12 10:57:19;;;;;;;46.90;37.67;;;;;;;;;;4983566;28;20250;-83
2022/11/12 10:59:45;;;;;;;49.10;39.33;;;;;;;;;;5009244;28;20175;-84
2022/11/12 11:02:18;;;;;;;46.53;38.00;;;;;;;;;;4996906;28;20206;-83
2022/11/12 11:04:44;;;;;;;43.67;38.93;;;;;;;;;;4993556;28;20215;-84
2022/11/12 11:07:20;;;;;;;49.67;40.10;;;;;;;;;;4990658;28;20250;-82
2022/11/12 11:09:54;;;;;;;42.97;37.30;;;;;;;;;;4993359;28;20188;-83
2022/11/12 11:12:31;;;;;;;42.60;37.87;;;;;;;;;;4982924;28;20216;-84
2022/11/12 11:15:15;;;;;;;42.83;38.23;;;;;;;;;;4982658;28;20198;-83
2022/11/12 11:17:41;;;;;;;45.33;39.60;;;;;;;;;;4981080;28;20180;-82
2022/11/12 11:20:13;;;;;;;46.97;39.07;;;;;;;;;;5010598;28;20271;-83
2022/11/12 11:22:45;;;;;;;43.03;38.33;;;;;;;;;;4976553;28;20228;-82
2022/11/12 11:25:11;;;;;;;46.47;39.43;;;;;;;;;;4992528;28;20262;-85
2022/11/12 11:27:57;;;;;;;45.60;38.33;;;;;;;;;;5009733;28;20729;-85
2022/11/12 11:30:24;;;;;;;51.77;43.13;;;;;;;;;;4972762;28;20188;-84
2022/11/12 11:33:12;;;;;;;53.40;45.50;;;;;;;;;;4957260;28;20685;-82
2022/11/12 11:35:53;;;;;;;48.07;40.20;;;;;;;;;;4973141;28;20220;-84
2022/11/12 11:38:19;;;;;;;49.60;42.07;;;;;;;;;;4956590;28;20242;-85
2022/11/12 11:40:45;;;;;;;48.73;43.27;;;;;;;;;;4957294;28;20630;-85
2022/11/12 11:43:16;;;;;;;50.03;42.37;;;;;;;;;;4956078;28;20220;-80
2022/11/12 11:45:48;;;;;;;44.87;38.67;;;;;;;;;;4948695;28;20233;-85
2022/11/12 11:48:23;;;;;;;44.47;39.37;;;;;;;;;;4956474;28;20560;-82
2022/11/12 11:50:58;;;;;;;46.77;41.67;;;;;;;;;;4956443;28;20184;-85
2022/11/12 11:53:26;;;;;;;50.87;42.93;;;;;;;;;;4954721;28;30467;-86
2022/11/12 11:55:53;;;;;;;46.33;40.93;;;;;;;;;;4956455;28;20184;-82
2022/11/12 11:58:37;;;;;;;46.03;40.53;;;;;;;;;;4960772;28;20192;-82
2022/11/12 12:01:13;;;;;;;44.50;38.07;;;;;;;;;;4972177;28;20278;-81
2022/11/12 12:03:39;;;;;;;41.00;35.47;;;;;;;;;;4956498;28;20200;-83
2022/11/12 12:06:08;;;;;;;42.77;35.77;;;;;;;;;;4953155;28;20546;-81
2022/11/12 12:08:53;;;;;;;54.10;42.30;;;;;;;;;;4976645;28;20207;-85
2022/11/12 12:11:29;;;;;;;38.80;33.57;;;;;;;;;;4992337;28;20176;-84
2022/11/12 12:14:14;;;;;;;45.40;36.20;;;;;;;;;;4974631;28;20192;-85
2022/11/12 12:16:44;;;;;;;41.53;35.37;;;;;;;;;;4974074;28;20176;-84
2022/11/12 12:19:13;;;;;;;45.67;33.40;;;;;;;;;;4988038;28;20194;-84
2022/11/12 12:21:44;;;;;;;39.40;32.37;;;;;;;;;;4989179;28;20230;-85
2022/11/12 12:24:19;;;;;;;41.33;33.97;;;;;;;;;;4990322;28;20371;-84
2022/11/12 12:27:04;;;;;;;40.40;29.90;;;;;;;;;;4981762;28;20193;-82
2022/11/12 12:29:39;;;;;;;37.43;30.60;;;;;;;;;;4993693;28;20517;-83
2022/11/12 12:32:18;;;;;;;36.33;28.77;;;;;;;;;;4993410;28;20211;-82
2022/11/12 12:34:46;;;;;;;34.43;27.70;;;;;;;;;;5005543;28;20195;-84
2022/11/12 12:37:16;;;;;;;35.03;29.10;;;;;;;;;;5002808;28;20184;-84
2022/11/12 12:39:51;;;;;;;35.87;28.93;;;;;;;;;;4987378;28;20215;-84
2022/11/12 12:42:29;;;;;;;35.80;28.30;;;;;;;;;;4993542;28;20194;-84
2022/11/12 12:45:00;;;;;;;39.20;28.93;;;;;;;;;;4990504;28;20271;-83
2022/11/12 12:47:28;;;;;;;46.07;34.00;;;;;;;;;;4975866;28;20231;-83
2022/11/12 12:49:55;;;;;;;32.37;27.80;;;;;;;;;;4992587;28;20175;-85
2022/11/12 12:52:21;;;;;;;34.40;29.53;;;;;;;;;;4992342;28;20208;-85
2022/11/12 12:54:47;;;;;;;33.00;29.37;;;;;;;;;;4989468;28;20711;-84
2022/11/12 12:57:32;;;;;;;37.83;31.30;;;;;;;;;;4992962;28;20192;-83
2022/11/12 13:00:16;;;;;;;38.30;32.43;;;;;;;;;;4992850;28;20180;-83
2022/11/12 13:02:42;;;;;;;41.20;32.97;;;;;;;;;;4993527;28;20180;-84
2022/11/12 13:05:22;;;;;;;42.80;35.20;;;;;;;;;;4994370;28;20186;-86
2022/11/12 13:07:49;;;;;;;42.00;35.53;;;;;;;;;;4988562;28;20359;-84
2022/11/12 13:10:34;;;;;;;37.83;31.13;;;;;;;;;;5007815;28;20250;-84
2022/11/12 13:13:20;;;;;;;43.27;34.10;;;;;;;;;;5001023;28;20295;-81
2022/11/12 13:15:46;;;;;;;40.80;32.83;;;;;;;;;;4993514;28;20196;-84
2022/11/12 13:18:32;;;;;;;40.13;33.77;;;;;;;;;;4993146;28;20247;-80
2022/11/12 13:21:17;;;;;;;45.93;35.30;;;;;;;;;;4972022;28;20226;-83
2022/11/12 13:24:06;;;;;;;36.30;30.27;;;;;;;;;;4988388;28;20196;-81
2022/11/12 13:26:49;;;;;;;39.07;31.63;;;;;;;;;;4977223;28;20175;-84
2022/11/12 13:29:18;;;;;;;37.63;31.03;;;;;;;;;;4989456;28;20274;-82
2022/11/12 13:31:44;;;;;;;39.23;28.70;;;;;;;;;;4990225;28;20180;-81
2022/11/12 13:34:21;;;;;;;36.40;30.30;;;;;;;;;;4991553;28;20215;-84
2022/11/12 13:36:55;;;;;;;38.20;30.90;;;;;;;;;;5007350;28;20187;-82
2022/11/12 13:39:22;;;;;;;36.67;29.30;;;;;;;;;;5006485;28;20275;-83
2022/11/12 13:44:40;;;;;;;32.77;28.23;;;;;;;;;;4994438;28;20529;-84
2022/11/12 13:47:10;;;;;;;38.87;31.13;;;;;;;;;;4992713;28;20214;-84
2022/11/12 13:49:36;;;;;;;40.47;32.03;;;;;;;;;;4972632;28;20196;-82
2022/11/12 13:52:04;;;;;;;41.47;32.47;;;;;;;;;;4982561;28;20212;-84
2022/11/12 13:54:35;;;;;;;41.93;32.37;;;;;;;;;;4988550;28;20219;-82
2022/11/12 13:57:19;;;;;;;37.20;30.27;;;;;;;;;;4996588;28;20184;-82
2022/11/12 13:59:49;;;;;;;38.63;31.03;;;;;;;;;;5001398;28;20187;-82
2022/11/12 14:02:23;;;;;;;44.27;35.80;;;;;;;;;;4986251;28;20659;-84
2022/11/12 14:04:50;;;;;;;46.53;36.87;;;;;;;;;;4987775;28;20179;-82
2022/11/12 14:07:35;;;;;;;39.47;33.07;;;;;;;;;;4991460;28;20196;-83
2022/11/12 14:10:19;;;;;;;46.80;35.73;;;;;;;;;;4979270;28;20184;-82
2022/11/12 14:13:04;;;;;;;40.40;33.10;;;;;;;;;;4995359;28;20235;-80
2022/11/12 14:15:49;;;;;;;36.17;31.10;;;;;;;;;;5006510;28;20187;-84
2022/11/12 14:18:20;;;;;;;42.70;32.57;;;;;;;;;;4989344;28;20234;-84
2022/11/12 14:20:46;;;;;;;47.30;37.23;;;;;;;;;;4999702;28;20231;-84
2022/11/12 14:23:14;;;;;;;41.93;35.60;;;;;;;;;;5011146;28;20261;-82
2022/11/12 14:25:53;;;;;;;37.67;32.67;;;;;;;;;;4995760;28;20188;-84
2022/11/12 14:28:35;;;;;;;37.10;31.77;;;;;;;;;;5000593;28;20184;-84
2022/11/12 14:31:02;;;;;;;41.87;32.77;;;;;;;;;;4991148;28;20196;-82
2022/11/12 14:33:29;;;;;;;38.43;31.73;;;;;;;;;;4987837;28;20211;-83
2022/11/12 14:36:06;;;;;;;38.47;33.00;;;;;;;;;;4997829;28;20192;-83
2022/11/12 14:38:42;;;;;;;39.43;32.37;;;;;;;;;;4975415;28;20187;-82
2022/11/12 14:41:10;;;;;;;43.37;34.40;;;;;;;;;;4982141;28;20700;-84
2022/11/12 14:43:37;;;;;;;42.53;33.83;;;;;;;;;;4993041;28;20214;-81
2022/11/12 14:46:05;;;;;;;44.60;33.90;;;;;;;;;;5010788;28;20180;-82
2022/11/12 14:48:34;;;;;;;45.40;33.97;;;;;;;;;;4994765;28;20246;-82
2022/11/12 14:51:03;;;;;;;40.70;33.53;;;;;;;;;;4994609;28;20267;-82
2022/11/12 14:53:35;;;;;;;44.23;36.00;;;;;;;;;;5010213;28;20261;-82
2022/11/12 14:56:02;;;;;;;44.03;36.27;;;;;;;;;;4975694;28;20279;-83
2022/11/12 14:58:29;;;;;;;43.43;35.30;;;;;;;;;;4992513;28;20187;-81
2022/11/12 15:00:55;;;;;;;47.80;38.23;;;;;;;;;;4989753;28;20648;-81